createdAt,value
2022-08-05T00:02:22.188Z,97759.38
2022-08-05T00:04:55.421Z,97759.25
2022-08-05T00:07:59.402Z,97758.19
2022-08-05T00:10:11.280Z,97763.28
2022-08-05T00:12:55.765Z,97765.78
2022-08-05T00:15:58.200Z,97764.22
2022-08-05T00:18:21.373Z,97762.41
2022-08-05T00:20:50.928Z,97752.97
2022-08-05T00:23:44.640Z,97755.69
2022-08-05T00:26:07.331Z,97749.13
2022-08-05T00:28:35.066Z,97753.69
2022-08-05T00:31:04.458Z,97764.41
2022-08-05T00:34:54.359Z,97764.91
2022-08-05T00:37:09.801Z,97774.31
2022-08-05T00:39:13.464Z,97776.16
2022-08-05T00:41:51.867Z,97778.84
2022-08-05T00:44:23.472Z,97783.59
2022-08-05T00:47:02.245Z,97777.41
2022-08-05T00:49:32.650Z,97777.53
2022-08-05T00:52:00.684Z,97761.34
2022-08-05T00:54:28.084Z,97770.53
2022-08-05T00:56:57.124Z,97772.16
2022-08-05T00:59:24.091Z,97767.81
2022-08-05T01:01:51.435Z,97784.56
2022-08-05T01:04:20.298Z,97782.47
2022-08-05T01:06:56.774Z,97782.91
2022-08-05T01:09:23.802Z,97798.50
2022-08-05T01:12:04.521Z,97827.22
2022-08-05T01:15:04.025Z,97816.59
2022-08-05T01:17:53.741Z,97821.59
2022-08-05T01:20:58.590Z,97830.03
2022-08-05T01:24:02.791Z,97840.53
2022-08-05T01:27:36.984Z,97846.91
2022-08-05T01:30:19.052Z,97849.38
2022-08-05T01:33:03.787Z,97845.59
2022-08-05T01:35:51.042Z,97829.75
2022-08-05T01:38:26.840Z,97847.53
2022-08-05T01:41:01.451Z,97842.09
2022-08-05T01:43:29.896Z,97851.47
2022-08-05T01:46:07.290Z,97859.50
2022-08-05T01:48:45.734Z,97849.88
2022-08-05T01:51:18.741Z,97847.25
2022-08-05T01:53:57.134Z,97852.19
2022-08-05T01:58:12.975Z,97861.03
2022-08-05T01:59:22.440Z,97858.03
2022-08-05T02:01:52.181Z,97868.88
2022-08-05T02:04:24.245Z,97875.88
2022-08-05T02:06:52.983Z,97880.47
2022-08-05T02:09:20.591Z,97877.03
2022-08-05T02:12:13.152Z,97877.31
2022-08-05T02:14:49.556Z,97877.69
2022-08-05T02:18:27.730Z,97879.75
2022-08-05T02:20:26.322Z,97884.25
2022-08-05T02:23:06.071Z,97872.75
2022-08-05T02:25:49.085Z,97865.66
2022-08-05T02:28:29.218Z,97866.34
2022-08-05T02:31:02.996Z,97867.28
2022-08-05T02:33:38.825Z,97866.38
2022-08-05T02:36:13.515Z,97863.09
2022-08-05T02:38:53.336Z,97865.81
2022-08-05T02:41:23.797Z,97860.34
2022-08-05T02:44:05.892Z,97870.66
2022-08-05T02:46:58.626Z,97869.78
2022-08-05T02:49:36.915Z,97876.34
2022-08-05T02:52:11.635Z,97883.94
2022-08-05T02:54:50.656Z,97872.09
2022-08-05T02:58:11.605Z,97864.97
2022-08-05T03:00:09.870Z,97863.97
2022-08-05T03:02:42.925Z,97865.97
2022-08-05T03:05:12.637Z,97869.25
2022-08-05T03:08:06.974Z,97884.16
2022-08-05T03:10:28.884Z,97881.44
2022-08-05T03:15:23.544Z,97884.72
2022-08-05T03:17:55.978Z,97882.75
2022-08-05T03:20:25.129Z,97878.28
2022-08-05T03:22:55.289Z,97882.06
2022-08-05T03:25:33.563Z,97888.31
2022-08-05T03:28:14.129Z,97892.16
2022-08-05T03:30:42.386Z,97895.75
2022-08-05T03:33:09.891Z,97894.91
2022-08-05T03:35:40.924Z,97904.38
2022-08-05T03:38:11.630Z,97916.16
2022-08-05T03:40:45.084Z,97936.00
2022-08-05T03:43:59.324Z,97927.59
2022-08-05T03:46:04.192Z,97937.94
2022-08-05T03:48:35.312Z,97945.63
2022-08-05T03:52:37.633Z,97928.63
2022-08-05T03:55:06.890Z,97924.63
2022-08-05T03:57:41.993Z,97922.31
2022-08-05T04:00:15.674Z,97933.19
2022-08-05T04:02:58.092Z,97927.97
2022-08-05T04:05:35.556Z,97937.56
2022-08-05T04:08:14.819Z,97928.50
2022-08-05T04:10:56.571Z,97915.38
2022-08-05T04:13:26.159Z,97911.03
2022-08-05T04:16:14.407Z,97914.75
2022-08-05T04:18:41.477Z,97895.75
2022-08-05T04:21:10.918Z,97890.25
2022-08-05T04:24:05.806Z,97919.59
2022-08-05T04:26:26.378Z,97929.06
2022-08-05T04:29:00.056Z,97927.56
2022-08-05T04:31:27.601Z,97929.41
2022-08-05T04:34:31.128Z,97926.97
2022-08-05T04:36:52.485Z,97941.53
2022-08-05T04:39:20.917Z,97947.69
2022-08-05T04:41:51.051Z,97960.09
2022-08-05T04:44:21.337Z,97987.13
2022-08-05T04:47:00.070Z,98003.09
2022-08-05T04:50:03.051Z,98020.47
2022-08-05T04:52:27.474Z,98034.50
2022-08-05T04:54:57.359Z,98044.66
2022-08-05T04:57:29.170Z,98049.09
2022-08-05T04:59:58.475Z,98046.53
2022-08-05T05:02:36.594Z,98069.88
2022-08-05T05:05:26.610Z,98077.75
2022-08-05T05:07:56.521Z,98079.34
2022-08-05T05:10:33.326Z,98091.00
2022-08-05T05:13:01.697Z,98097.41
2022-08-05T05:15:56.370Z,98093.44
2022-08-05T05:18:30.996Z,98106.97
2022-08-05T05:21:00.910Z,98098.97
2022-08-05T05:23:38.814Z,98117.41
2022-08-05T05:26:14.956Z,98130.47
2022-08-05T05:28:42.920Z,98125.38
2022-08-05T05:31:12.682Z,98137.19
2022-08-05T05:33:59.872Z,98146.91
2022-08-05T05:36:28.749Z,98157.28
2022-08-05T05:38:57.262Z,98160.03
2022-08-05T05:41:24.444Z,98146.78
2022-08-05T05:43:56.872Z,98155.09
2022-08-05T05:46:25.637Z,98153.16
2022-08-05T05:48:52.620Z,98164.94
2022-08-05T05:51:25.598Z,98160.13
2022-08-05T05:53:58.099Z,98162.31
2022-08-05T05:56:33.210Z,98169.63
2022-08-05T05:59:06.956Z,98164.56
2022-08-05T06:01:39.802Z,98165.88
2022-08-05T06:04:12.971Z,98166.78
2022-08-05T06:06:47.485Z,98175.34
2022-08-05T06:09:25.402Z,98179.22
2022-08-05T06:12:03.927Z,98181.31
2022-08-05T06:14:32.312Z,98181.59
2022-08-05T06:17:01.869Z,98188.81
2022-08-05T06:19:34.411Z,98190.25
2022-08-05T06:22:07.328Z,98187.22
2022-08-05T06:24:42.062Z,98188.31
2022-08-05T06:27:17.368Z,98199.50
2022-08-05T06:30:16.703Z,98197.94
2022-08-05T06:32:47.149Z,98190.34
2022-08-05T06:35:15.560Z,98175.06
2022-08-05T06:37:57.666Z,98174.63
2022-08-05T06:40:28.099Z,98163.13
2022-08-05T06:42:59.435Z,98159.03
2022-08-05T06:46:04.188Z,98159.88
2022-08-05T06:48:52.843Z,98141.56
2022-08-05T06:51:00.442Z,98146.97
2022-08-05T06:53:28.408Z,98166.06
2022-08-05T06:55:58.483Z,98168.78
2022-08-05T06:58:34.849Z,98180.63
2022-08-05T07:01:05.940Z,98176.22
2022-08-05T07:03:33.620Z,98175.34
2022-08-05T07:06:05.845Z,98175.00
2022-08-05T07:08:47.793Z,98178.41
2022-08-05T07:11:22.220Z,98180.78
2022-08-05T07:14:15.784Z,98176.22
2022-08-05T07:18:01.085Z,98178.53
2022-08-05T07:22:29.012Z,98191.91
2022-08-05T07:25:09.512Z,98198.81
2022-08-05T07:27:58.693Z,98204.66
2022-08-05T07:30:39.734Z,98203.06
2022-08-05T07:33:16.978Z,98210.53
2022-08-05T07:36:03.389Z,98224.47
2022-08-05T07:38:35.677Z,98228.25
2022-08-05T07:42:07.843Z,98231.81
2022-08-05T07:44:19.145Z,98229.13
2022-08-05T07:46:49.484Z,98219.47
2022-08-05T07:49:18.664Z,98187.72
2022-08-05T07:51:53.356Z,98203.97
2022-08-05T07:54:30.748Z,98207.22
2022-08-05T07:57:02.613Z,98207.91
2022-08-05T07:59:46.893Z,98214.13
2022-08-05T08:02:17.617Z,98210.25
2022-08-05T08:04:49.631Z,98221.66
2022-08-05T08:07:22.381Z,98214.50
2022-08-05T08:09:52.335Z,98219.06
2022-08-05T08:12:35.521Z,98221.25
2022-08-05T08:15:13.823Z,98220.69
2022-08-05T08:17:50.709Z,98221.91
2022-08-05T08:21:00.546Z,98227.34
2022-08-05T08:24:01.801Z,98217.38
2022-08-05T08:26:04.481Z,98219.38
2022-08-05T08:28:37.533Z,98222.47
2022-08-05T08:31:19.355Z,98223.19
2022-08-05T08:33:46.958Z,98220.97
2022-08-05T08:36:39.188Z,98216.34
2022-08-05T08:39:15.143Z,98219.06
2022-08-05T08:41:52.009Z,98209.72
2022-08-05T08:45:22.624Z,98213.41
2022-08-05T08:48:07.712Z,98210.56
2022-08-05T08:50:30.997Z,98212.88
2022-08-05T08:53:08.052Z,98210.38
2022-08-05T08:56:05.015Z,98207.03
2022-08-05T08:58:37.562Z,98203.78
2022-08-05T09:01:16.321Z,98203.13
2022-08-05T09:03:55.630Z,98195.13
2022-08-05T09:06:29.993Z,98204.31
2022-08-05T09:09:02.058Z,98200.56
2022-08-05T09:11:51.394Z,98187.53
2022-08-05T09:14:58.879Z,98189.72
2022-08-05T09:17:40.811Z,98188.50
2022-08-05T09:20:02.530Z,98185.13
2022-08-05T09:23:09.444Z,98171.44
2022-08-05T09:26:00.970Z,98176.13
2022-08-05T09:28:31.669Z,98167.56
2022-08-05T09:31:22.407Z,98162.47
2022-08-05T09:34:01.071Z,98152.69
2022-08-05T09:36:54.768Z,98151.31
2022-08-05T09:39:27.695Z,98141.09
2022-08-05T09:42:17.387Z,98139.09
2022-08-05T09:44:56.392Z,98135.31
2022-08-05T09:47:48.152Z,98132.25
2022-08-05T09:50:38.054Z,98130.28
2022-08-05T09:53:06.732Z,98125.25
2022-08-05T09:55:57.428Z,98129.75
2022-08-05T09:58:25.716Z,98132.53
2022-08-05T10:01:13.429Z,98128.88
2022-08-05T10:03:59.428Z,98124.47
2022-08-05T10:06:28.251Z,98131.44
2022-08-05T10:08:57.083Z,98115.63
2022-08-05T10:11:24.182Z,98116.22
2022-08-05T10:13:58.347Z,98117.28
2022-08-05T10:16:41.614Z,98114.69
2022-08-05T10:19:23.439Z,98119.13
2022-08-05T10:22:02.975Z,98120.63
2022-08-05T10:24:33.388Z,98129.81
2022-08-05T10:27:07.593Z,98125.78
2022-08-05T10:30:06.432Z,98116.91
2022-08-05T10:32:54.349Z,98116.06
2022-08-05T10:35:11.266Z,98117.41
2022-08-05T10:37:44.676Z,98120.31
2022-08-05T10:40:43.542Z,98112.31
2022-08-05T10:43:36.559Z,98117.03
2022-08-05T10:46:08.289Z,98118.47
2022-08-05T10:48:56.868Z,98123.59
2022-08-05T10:51:28.451Z,98117.41
2022-08-05T10:54:05.914Z,98117.19
2022-08-05T10:56:55.968Z,98116.56
2022-08-05T11:00:04.324Z,98108.03
2022-08-05T11:02:34.837Z,98103.00
2022-08-05T11:05:10.673Z,98108.66
2022-08-05T11:08:12.736Z,98117.09
2022-08-05T11:10:50.274Z,98116.44
2022-08-05T11:13:57.600Z,98112.13
2022-08-05T11:16:47.730Z,98118.25
2022-08-05T11:20:11.258Z,98111.03
2022-08-05T11:22:42.400Z,98114.09
2022-08-05T11:26:04.518Z,98121.97
2022-08-05T11:28:36.005Z,98125.84
2022-08-05T11:31:06.156Z,98125.16
2022-08-05T11:33:46.728Z,98123.94
2022-08-05T11:36:34.342Z,98124.78
2022-08-05T11:39:13.619Z,98120.81
2022-08-05T11:41:57.974Z,98116.91
2022-08-05T11:44:53.064Z,98123.44
2022-08-05T11:47:48.996Z,98121.22
2022-08-05T11:50:14.262Z,98119.97
2022-08-05T11:52:43.821Z,98119.41
2022-08-05T11:55:13.540Z,98111.19
2022-08-05T11:58:09.240Z,98120.56
2022-08-05T12:00:38.425Z,98123.53
2022-08-05T12:03:28.586Z,98117.84
2022-08-05T12:06:05.845Z,98104.69
2022-08-05T12:08:34.208Z,98116.41
2022-08-05T12:11:10.044Z,98107.50
2022-08-05T12:14:04.161Z,98106.41
2022-08-05T12:16:38.457Z,98103.75
2022-08-05T12:19:08.293Z,98099.09
2022-08-05T12:21:44.239Z,98099.34
2022-08-05T12:24:19.335Z,98100.47
2022-08-05T12:26:52.877Z,98096.38
2022-08-05T12:29:28.950Z,98082.47
2022-08-05T12:32:07.588Z,98084.66
2022-08-05T12:34:38.425Z,98097.91
2022-08-05T12:37:10.926Z,98091.16
2022-08-05T12:39:51.191Z,98089.09
2022-08-05T12:42:21.201Z,98081.91
2022-08-05T12:44:48.866Z,98090.81
2022-08-05T12:47:30.440Z,98082.31
2022-08-05T12:50:04.492Z,98090.97
2022-08-05T12:52:39.059Z,98068.47
2022-08-05T12:55:26.132Z,98059.06
2022-08-05T12:58:52.742Z,98070.53
2022-08-05T13:02:00.181Z,98061.25
2022-08-05T13:03:42.084Z,98049.28
2022-08-05T13:06:17.917Z,98067.91
2022-08-05T13:08:51.834Z,98058.13
2022-08-05T13:11:59.760Z,98050.41
2022-08-05T13:14:24.891Z,98057.75
2022-08-05T13:17:20.411Z,98053.22
2022-08-05T13:20:23.623Z,98049.34
2022-08-05T13:22:53.583Z,98053.28
2022-08-05T13:25:22.056Z,98046.47
2022-08-05T13:27:52.179Z,98040.84
2022-08-05T13:30:34.476Z,98034.56
2022-08-05T13:33:04.464Z,98043.94
2022-08-05T13:35:47.160Z,98037.00
2022-08-05T13:38:30.636Z,98037.81
2022-08-05T13:41:01.239Z,98042.66
2022-08-05T13:43:45.446Z,98042.56
2022-08-05T13:46:16.293Z,98045.44
2022-08-05T13:48:57.137Z,98040.22
2022-08-05T13:51:36.548Z,98038.16
2022-08-05T13:54:11.726Z,98028.19
2022-08-05T13:56:45.524Z,98040.06
2022-08-05T13:59:24.825Z,98023.66
2022-08-05T14:02:00.018Z,98027.00
2022-08-05T14:04:52.615Z,98025.06
2022-08-05T14:07:55.731Z,98021.25
2022-08-05T14:10:30.886Z,98018.56
2022-08-05T14:12:59.441Z,98017.22
2022-08-05T14:16:04.768Z,98012.56
2022-08-05T14:18:18.262Z,98010.78
2022-08-05T14:20:54.442Z,98007.84
2022-08-05T14:23:24.704Z,98012.69
2022-08-05T14:25:58.603Z,98019.66
2022-08-05T14:28:30.571Z,98019.47
2022-08-05T14:31:00.632Z,98021.84
2022-08-05T14:33:32.624Z,98009.53
2022-08-05T14:36:20.517Z,98009.84
2022-08-05T14:38:49.571Z,98010.00
2022-08-05T14:41:17.785Z,98017.59
2022-08-05T14:44:01.853Z,98015.66
2022-08-05T14:46:35.053Z,98019.53
2022-08-05T14:49:07.259Z,98023.97
2022-08-05T14:51:42.973Z,98019.31
2022-08-05T14:54:28.367Z,98021.53
2022-08-05T14:56:58.772Z,98020.44
2022-08-05T14:59:29.786Z,98029.13
2022-08-05T15:02:15.837Z,98030.41
2022-08-05T15:04:43.757Z,98034.28
2022-08-05T15:07:12.050Z,98030.59
2022-08-05T15:10:01.574Z,98029.50
2022-08-05T15:12:51.378Z,98039.44
2022-08-05T15:15:17.400Z,98042.31
2022-08-05T15:18:05.805Z,98040.06
2022-08-05T15:20:33.159Z,98044.63
2022-08-05T15:23:09.733Z,98047.47
2022-08-05T15:25:51.236Z,98051.94
2022-08-05T15:28:20.095Z,98056.91
2022-08-05T15:30:55.279Z,98056.00
2022-08-05T15:34:18.447Z,98061.44
2022-08-05T15:36:17.812Z,98074.13
2022-08-05T15:40:39.730Z,98088.56
2022-08-05T15:41:55.940Z,98109.88
2022-08-05T15:44:27.542Z,98110.38
2022-08-05T15:46:55.761Z,98086.03
2022-08-05T15:49:41.878Z,98046.97
2022-08-05T15:52:52.306Z,98041.69
2022-08-05T15:54:56.889Z,98070.78
2022-08-05T15:57:24.357Z,98091.41
2022-08-05T15:59:55.208Z,98089.91
2022-08-05T16:02:25.586Z,98092.25
2022-08-05T16:04:53.358Z,98099.00
2022-08-05T16:07:23.047Z,98098.63
2022-08-05T16:09:50.216Z,98088.28
2022-08-05T16:12:20.403Z,98096.84
2022-08-05T16:14:47.578Z,98084.56
2022-08-05T16:17:14.599Z,98091.16
2022-08-05T16:20:04.800Z,98091.50
2022-08-05T16:22:34.364Z,98105.75
2022-08-05T16:25:09.338Z,98103.19
2022-08-05T16:28:00.058Z,98102.38
2022-08-05T16:30:28.769Z,98117.34
2022-08-05T16:32:56.877Z,98116.25
2022-08-05T16:35:27.978Z,98122.00
2022-08-05T16:38:02.491Z,98125.84
2022-08-05T16:40:43.200Z,98137.63
2022-08-05T16:43:19.508Z,98141.41
2022-08-05T16:46:04.033Z,98142.38
2022-08-05T16:48:35.533Z,98143.94
2022-08-05T16:51:03.920Z,98140.53
2022-08-05T16:54:04.112Z,98134.59
2022-08-05T16:56:24.737Z,98148.91
2022-08-05T16:58:51.950Z,98153.41
2022-08-05T17:01:19.250Z,98158.56
2022-08-05T17:03:46.826Z,98154.25
2022-08-05T17:06:16.646Z,98160.50
2022-08-05T17:08:52.282Z,98165.25
2022-08-05T17:11:23.747Z,98170.00
2022-08-05T17:14:00.420Z,98174.28
2022-08-05T17:16:38.258Z,98170.81
2022-08-05T17:19:07.303Z,98174.06
2022-08-05T17:21:37.693Z,98173.34
2022-08-05T17:24:28.378Z,98170.38
2022-08-05T17:26:57.463Z,98177.25
2022-08-05T17:29:33.467Z,98178.88
2022-08-05T17:32:16.626Z,98176.91
2022-08-05T17:34:48.042Z,98182.69
2022-08-05T17:37:40.487Z,98181.31
2022-08-05T17:40:12.166Z,98191.81
2022-08-05T17:42:43.006Z,98190.09
2022-08-05T17:45:21.282Z,98198.69
2022-08-05T17:47:55.763Z,98188.63
2022-08-05T17:50:28.888Z,98190.50
2022-08-05T17:53:03.036Z,98196.03
2022-08-05T17:55:37.976Z,98204.00
2022-08-05T17:58:11.070Z,98203.28
2022-08-05T18:00:45.516Z,98206.94
2022-08-05T18:03:56.225Z,98207.75
2022-08-05T18:06:11.313Z,98220.84
2022-08-05T18:08:44.166Z,98229.16
2022-08-05T18:11:23.876Z,98237.63
2022-08-05T18:14:04.191Z,98234.72
2022-08-05T18:16:33.521Z,98231.25
2022-08-05T18:19:00.663Z,98233.84
2022-08-05T18:21:28.199Z,98238.16
2022-08-05T18:24:14.763Z,98245.69
2022-08-05T18:26:42.147Z,98249.84
2022-08-05T18:29:11.016Z,98252.16
2022-08-05T18:31:38.551Z,98254.78
2022-08-05T18:34:12.154Z,98256.19
2022-08-05T18:36:41.378Z,98260.94
2022-08-05T18:39:42.106Z,98260.44
2022-08-05T18:42:04.580Z,98260.31
2022-08-05T18:44:35.225Z,98277.13
2022-08-05T18:47:16.240Z,98273.41
2022-08-05T18:50:02.136Z,98283.19
2022-08-05T18:52:33.704Z,98286.94
2022-08-05T18:55:06.387Z,98298.88
2022-08-05T18:57:49.964Z,98307.94
2022-08-05T19:00:28.431Z,98309.53
2022-08-05T19:03:04.289Z,98321.44
2022-08-05T19:06:12.092Z,98323.66
2022-08-05T19:08:20.299Z,98341.75
2022-08-05T19:10:50.323Z,98346.47
2022-08-05T19:13:18.044Z,98354.38
2022-08-05T19:16:00.064Z,98361.78
2022-08-05T19:18:31.569Z,98368.34
2022-08-05T19:20:59.849Z,98366.06
2022-08-05T19:24:05.321Z,98366.63
2022-08-05T19:26:16.654Z,98372.66
2022-08-05T19:28:44.679Z,98379.34
2022-08-05T19:31:18.054Z,98379.78
2022-08-05T19:33:56.802Z,98382.13
2022-08-05T19:36:29.321Z,98385.28
2022-08-05T19:39:01.064Z,98394.03
2022-08-05T19:42:05.519Z,98401.75
2022-08-05T19:44:19.144Z,98395.50
2022-08-05T19:46:46.550Z,98394.22
2022-08-05T19:49:17.528Z,98402.97
2022-08-05T19:52:08.661Z,98410.69
2022-08-05T19:54:35.655Z,98422.63
2022-08-05T19:57:06.529Z,98417.19
2022-08-05T19:59:55.411Z,98432.03
2022-08-05T20:02:26.279Z,98439.69
2022-08-05T20:04:54.768Z,98437.47
2022-08-05T20:07:46.829Z,98421.53
2022-08-05T20:10:13.513Z,98415.00
2022-08-05T20:12:47.607Z,98428.72
2022-08-05T20:15:23.038Z,98446.88
2022-08-05T20:18:10.333Z,98442.25
2022-08-05T20:20:55.207Z,98456.44
2022-08-05T20:23:40.385Z,98463.78
2022-08-05T20:26:16.423Z,98467.25
2022-08-05T20:28:56.250Z,98473.66
2022-08-05T20:31:42.114Z,98465.56
2022-08-05T20:34:14.130Z,98439.66
2022-08-05T20:36:43.401Z,98448.00
2022-08-05T20:39:13.340Z,98467.22
2022-08-05T20:41:44.564Z,98476.47
2022-08-05T20:44:30.269Z,98478.66
2022-08-05T20:47:04.608Z,98475.38
2022-08-05T20:49:39.322Z,98476.22
2022-08-05T20:52:08.747Z,98467.41
2022-08-05T20:54:58.948Z,98482.34
2022-08-05T20:57:44.057Z,98505.25
2022-08-05T21:00:41.270Z,98506.75
2022-08-05T21:03:07.898Z,98509.94
2022-08-05T21:05:53.505Z,98507.78
2022-08-05T21:08:26.804Z,98507.06
2022-08-05T21:12:06.543Z,98519.91
2022-08-05T21:14:00.630Z,98531.03
2022-08-05T21:16:29.921Z,98542.06
2022-08-05T21:19:01.940Z,98541.06
2022-08-05T21:21:39.019Z,98548.13
2022-08-05T21:24:13.571Z,98546.56
2022-08-05T21:26:47.213Z,98551.56
2022-08-05T21:29:20.738Z,98544.59
2022-08-05T21:31:53.378Z,98555.56
2022-08-05T21:34:20.920Z,98548.78
2022-08-05T21:36:49.321Z,98563.09
2022-08-05T21:39:17.003Z,98575.84
2022-08-05T21:42:01.483Z,98557.16
2022-08-05T21:44:31.040Z,98555.31
2022-08-05T21:46:59.227Z,98559.38
2022-08-05T21:50:00.227Z,98563.19
2022-08-05T21:52:21.972Z,98575.69
2022-08-05T21:54:57.317Z,98582.69
2022-08-05T21:57:32.615Z,98586.81
2022-08-05T22:00:06.116Z,98592.53
2022-08-05T22:02:39.883Z,98590.19
2022-08-05T22:05:09.972Z,98591.88
2022-08-05T22:07:40.508Z,98604.47
2022-08-05T22:10:26.688Z,98609.09
2022-08-05T22:14:05.002Z,98614.41
2022-08-05T22:16:02.690Z,98614.19
2022-08-05T22:18:33.441Z,98608.72
2022-08-05T22:21:04.024Z,98606.53
2022-08-05T22:24:02.128Z,98605.53
2022-08-05T22:26:50.002Z,98614.28
2022-08-05T22:29:18.682Z,98636.25
2022-08-05T22:31:45.970Z,98638.72
2022-08-05T22:34:28.343Z,98647.38
2022-08-05T22:36:56.913Z,98654.69
2022-08-05T22:39:33.249Z,98651.69
2022-08-05T22:42:12.396Z,98650.09
2022-08-05T22:44:42.659Z,98653.88
2022-08-05T22:47:29.423Z,98659.84
2022-08-05T22:50:18.158Z,98675.03
2022-08-05T22:52:51.502Z,98687.75
2022-08-05T22:55:21.651Z,98686.41
2022-08-05T22:57:53.543Z,98690.72
2022-08-05T23:00:23.419Z,98699.94
2022-08-05T23:02:53.294Z,98710.97
2022-08-05T23:05:21.921Z,98711.50
2022-08-05T23:07:50.638Z,98712.00
2022-08-05T23:10:23.499Z,98705.53
2022-08-05T23:12:54.473Z,98713.66
2022-08-05T23:15:29.400Z,98712.59
2022-08-05T23:18:03.543Z,98721.47
2022-08-05T23:20:37.417Z,98718.28
2022-08-05T23:23:06.000Z,98722.38
2022-08-05T23:25:51.688Z,98720.19
2022-08-05T23:28:26.916Z,98717.97
2022-08-05T23:31:16.046Z,98727.34
2022-08-05T23:34:04.952Z,98717.78
2022-08-05T23:36:40.261Z,98723.47
2022-08-05T23:39:17.532Z,98730.78
2022-08-05T23:42:00.342Z,98734.34
2022-08-05T23:44:31.147Z,98730.28
2022-08-05T23:47:02.645Z,98736.53
2022-08-05T23:49:45.699Z,98734.63
2022-08-05T23:52:35.998Z,98738.13
2022-08-05T23:55:16.348Z,98741.63
2022-08-05T23:57:44.769Z,98740.00
